Impacts METAR Board INFO
IDs:

KPDX - Portland Intl Arpt, OR, US

Updated at: 0039 UTC 14 Dec 2017
Potential Impact None Slight Moderate High
Time13/12Z 13/13Z 13/14Z 13/15Z 13/16Z 13/17Z 13/18Z 13/19Z 13/20Z 13/21Z 13/22Z 13/23Z 14/00Z
VIS10 10 10 10 10 10 10 10 10 10 10 10 10
CIG-- -- -- -- -- -- -- -- -- -- -- -- --
CoverFEWCLRFEWFEWFEWFEWSCTFEWSCTSCTSCTSCTSCT
FltCatVFRVFRVFRVFRVFRVFRVFRVFRVFRVFRVFRVFRVFR
WX--------------------------
WDir110501000330270003000130120
WSpd6 4 4 0 0 3 3 0 0 4 3 8 10
WGst-- -- -- -- -- -- -- -- -- -- -- -- --
Raw hourly METARs
KPDX 131153Z 11006KT 10SM FEW160 01/M03 A3041 RMK AO2 SLP295 7//// T00111028 10039 20011 56007
KPDX 131253Z 05004KT 10SM CLR 01/M02 A3040 RMK AO2 SLP292 T00111022
KPDX 131353Z 01004KT 10SM FEW250 01/M02 A3040 RMK AO2 SLP293 T00111022
KPDX 131453Z 00000KT 10SM FEW250 M01/M03 A3040 RMK AO2 SLP293 T10061028 55002
KPDX 131553Z 00000KT 10SM FEW250 M01/M03 A3041 RMK AO2 SLP298 T10111028
KPDX 131653Z 33003KT 10SM FEW250 02/M01 A3042 RMK AO2 SLP302 T00171011
KPDX 131753Z 27003KT 10SM SCT250 03/M01 A3042 RMK AO2 SLP302 T00331011 10033 21017 51008
KPDX 131853Z 00000KT 10SM FEW250 04/M01 A3041 RMK AO2 SLP298 T00441011
KPDX 131953Z 00000KT 10SM SCT250 06/M01 A3039 RMK AO2 SLP289 T00611011
KPDX 132053Z 30004KT 10SM SCT250 07/M01 A3037 RMK AO2 SLP283 T00671011 58019
KPDX 132153Z VRB03KT 10SM SCT250 07/M01 A3036 RMK AO2 SLP281 CCSL SE T00721011
KPDX 132253Z 13008KT 10SM FEW200 SCT250 07/M02 A3036 RMK AO2 SLP280 CCSL SE AND S T00671017
KPDX 132353Z 12010KT 10SM FEW140 FEW200 SCT250 06/M02 A3036 RMK AO2 SLP281 ACSL NE-E CCSL S T00561017 10078 20033 55002